sensor_id;sensor_type;location;lat;lon;timestamp;P1;durP1;ratioP1;P2;durP2;ratioP2
55469;SDS011;41334;47.872;16.384;2022-08-01T00:01:04;3.42;;;2.35;;
55469;SDS011;41334;47.872;16.384;2022-08-01T00:04:06;2.67;;;2.47;;
55469;SDS011;41334;47.872;16.384;2022-08-01T00:07:08;4.78;;;2.75;;
55469;SDS011;41334;47.872;16.384;2022-08-01T00:10:11;3.15;;;2.33;;
55469;SDS011;41334;47.872;16.384;2022-08-01T00:13:14;3.17;;;2.38;;
55469;SDS011;41334;47.872;16.384;2022-08-01T00:16:16;3.10;;;2.40;;
55469;SDS011;41334;47.872;16.384;2022-08-01T00:19:17;4.70;;;2.47;;
55469;SDS011;41334;47.872;16.384;2022-08-01T00:22:20;4.47;;;2.50;;
55469;SDS011;41334;47.872;16.384;2022-08-01T00:25:22;4.45;;;2.60;;
55469;SDS011;41334;47.872;16.384;2022-08-01T00:28:35;3.05;;;2.58;;
55469;SDS011;41334;47.872;16.384;2022-08-01T00:31:36;2.88;;;2.50;;
55469;SDS011;41334;47.872;16.384;2022-08-01T00:34:38;3.63;;;2.95;;
55469;SDS011;41334;47.872;16.384;2022-08-01T00:37:40;4.55;;;3.08;;
55469;SDS011;41334;47.872;16.384;2022-08-01T00:40:41;6.07;;;3.10;;
55469;SDS011;41334;47.872;16.384;2022-08-01T00:43:43;7.07;;;2.97;;
55469;SDS011;41334;47.872;16.384;2022-08-01T00:46:45;5.45;;;2.83;;
55469;SDS011;41334;47.872;16.384;2022-08-01T00:49:47;5.00;;;3.03;;
55469;SDS011;41334;47.872;16.384;2022-08-01T00:52:48;4.65;;;2.97;;
55469;SDS011;41334;47.872;16.384;2022-08-01T00:55:52;3.78;;;2.53;;
55469;SDS011;41334;47.872;16.384;2022-08-01T00:58:54;4.00;;;2.75;;
55469;SDS011;41334;47.872;16.384;2022-08-01T01:01:56;3.17;;;2.63;;
55469;SDS011;41334;47.872;16.384;2022-08-01T01:04:59;3.35;;;2.65;;
55469;SDS011;41334;47.872;16.384;2022-08-01T01:11:48;3.80;;;2.67;;
55469;SDS011;41334;47.872;16.384;2022-08-01T01:14:38;3.97;;;2.97;;
55469;SDS011;41334;47.872;16.384;2022-08-01T01:30:50;4.35;;;2.97;;
55469;SDS011;41334;47.872;16.384;2022-08-01T01:33:54;5.50;;;3.47;;
55469;SDS011;41334;47.872;16.384;2022-08-01T01:36:59;3.90;;;2.85;;
55469;SDS011;41334;47.872;16.384;2022-08-01T01:40:04;3.35;;;2.65;;
55469;SDS011;41334;47.872;16.384;2022-08-01T01:43:09;4.38;;;2.72;;
55469;SDS011;41334;47.872;16.384;2022-08-01T01:46:13;5.28;;;3.03;;
55469;SDS011;41334;47.872;16.384;2022-08-01T01:49:19;4.32;;;3.20;;
55469;SDS011;41334;47.872;16.384;2022-08-01T01:52:24;3.50;;;2.90;;
55469;SDS011;41334;47.872;16.384;2022-08-01T01:55:27;5.55;;;2.70;;
55469;SDS011;41334;47.872;16.384;2022-08-01T01:58:31;3.40;;;2.47;;
55469;SDS011;41334;47.872;16.384;2022-08-01T02:01:35;2.90;;;2.55;;
55469;SDS011;41334;47.872;16.384;2022-08-01T02:04:57;3.67;;;3.05;;
55469;SDS011;41334;47.872;16.384;2022-08-01T02:08:00;4.53;;;2.85;;
55469;SDS011;41334;47.872;16.384;2022-08-01T02:11:04;5.07;;;2.60;;
55469;SDS011;41334;47.872;16.384;2022-08-01T02:14:19;4.32;;;2.60;;
55469;SDS011;41334;47.872;16.384;2022-08-01T02:17:23;3.20;;;2.65;;
55469;SDS011;41334;47.872;16.384;2022-08-01T02:20:27;3.42;;;2.58;;
55469;SDS011;41334;47.872;16.384;2022-08-01T02:23:32;3.97;;;2.67;;
55469;SDS011;41334;47.872;16.384;2022-08-01T02:26:38;5.70;;;2.72;;
55469;SDS011;41334;47.872;16.384;2022-08-01T02:29:53;3.70;;;2.60;;
55469;SDS011;41334;47.872;16.384;2022-08-01T02:33:06;2.83;;;2.42;;
55469;SDS011;41334;47.872;16.384;2022-08-01T02:36:16;3.25;;;2.75;;
55469;SDS011;41334;47.872;16.384;2022-08-01T02:39:33;3.95;;;2.72;;
55469;SDS011;41334;47.872;16.384;2022-08-01T02:42:38;4.43;;;3.10;;
55469;SDS011;41334;47.872;16.384;2022-08-01T02:45:45;3.60;;;2.53;;
55469;SDS011;41334;47.872;16.384;2022-08-01T02:48:52;3.00;;;2.50;;
55469;SDS011;41334;47.872;16.384;2022-08-01T02:51:57;3.35;;;2.70;;
55469;SDS011;41334;47.872;16.384;2022-08-01T02:55:02;4.73;;;2.80;;
55469;SDS011;41334;47.872;16.384;2022-08-01T02:58:06;4.38;;;2.75;;
55469;SDS011;41334;47.872;16.384;2022-08-01T03:01:13;4.25;;;2.95;;
55469;SDS011;41334;47.872;16.384;2022-08-01T03:04:20;3.05;;;2.70;;
55469;SDS011;41334;47.872;16.384;2022-08-01T03:07:27;4.20;;;2.78;;
55469;SDS011;41334;47.872;16.384;2022-08-01T03:10:36;4.38;;;2.65;;
55469;SDS011;41334;47.872;16.384;2022-08-01T03:13:40;3.80;;;3.20;;
55469;SDS011;41334;47.872;16.384;2022-08-01T03:16:45;7.70;;;3.00;;
55469;SDS011;41334;47.872;16.384;2022-08-01T03:19:48;7.68;;;2.60;;
55469;SDS011;41334;47.872;16.384;2022-08-01T03:22:52;3.20;;;2.85;;
55469;SDS011;41334;47.872;16.384;2022-08-01T03:25:55;3.65;;;2.85;;
55469;SDS011;41334;47.872;16.384;2022-08-01T03:29:05;3.97;;;2.45;;
55469;SDS011;41334;47.872;16.384;2022-08-01T03:32:08;3.78;;;2.50;;
55469;SDS011;41334;47.872;16.384;2022-08-01T03:35:12;4.13;;;2.20;;
55469;SDS011;41334;47.872;16.384;2022-08-01T03:38:15;3.45;;;2.30;;
55469;SDS011;41334;47.872;16.384;2022-08-01T03:41:21;6.70;;;2.63;;
55469;SDS011;41334;47.872;16.384;2022-08-01T03:44:28;5.43;;;2.83;;
55469;SDS011;41334;47.872;16.384;2022-08-01T03:47:34;3.45;;;2.50;;
55469;SDS011;41334;47.872;16.384;2022-08-01T03:50:48;3.80;;;2.58;;
55469;SDS011;41334;47.872;16.384;2022-08-01T03:53:52;3.80;;;2.85;;
55469;SDS011;41334;47.872;16.384;2022-08-01T03:56:56;3.40;;;2.75;;
55469;SDS011;41334;47.872;16.384;2022-08-01T03:59:59;5.60;;;3.05;;
55469;SDS011;41334;47.872;16.384;2022-08-01T04:03:12;5.03;;;3.08;;
55469;SDS011;41334;47.872;16.384;2022-08-01T04:06:14;3.58;;;2.60;;
55469;SDS011;41334;47.872;16.384;2022-08-01T04:09:16;6.32;;;3.03;;
55469;SDS011;41334;47.872;16.384;2022-08-01T04:12:19;3.90;;;2.80;;
55469;SDS011;41334;47.872;16.384;2022-08-01T04:15:21;4.20;;;2.70;;
55469;SDS011;41334;47.872;16.384;2022-08-01T04:18:23;3.75;;;2.75;;
55469;SDS011;41334;47.872;16.384;2022-08-01T04:21:25;3.88;;;2.80;;
55469;SDS011;41334;47.872;16.384;2022-08-01T04:24:29;4.88;;;2.70;;
55469;SDS011;41334;47.872;16.384;2022-08-01T04:27:35;4.43;;;2.60;;
55469;SDS011;41334;47.872;16.384;2022-08-01T04:30:52;5.40;;;2.75;;
55469;SDS011;41334;47.872;16.384;2022-08-01T04:34:02;6.88;;;3.00;;
55469;SDS011;41334;47.872;16.384;2022-08-01T04:37:09;4.05;;;3.03;;
55469;SDS011;41334;47.872;16.384;2022-08-01T04:40:13;3.28;;;2.50;;
55469;SDS011;41334;47.872;16.384;2022-08-01T04:43:17;3.20;;;2.53;;
55469;SDS011;41334;47.872;16.384;2022-08-01T04:46:20;3.05;;;2.42;;
55469;SDS011;41334;47.872;16.384;2022-08-01T04:49:23;4.43;;;2.10;;
55469;SDS011;41334;47.872;16.384;2022-08-01T04:52:32;4.07;;;2.60;;
55469;SDS011;41334;47.872;16.384;2022-08-01T04:55:37;3.42;;;2.30;;
55469;SDS011;41334;47.872;16.384;2022-08-01T04:58:39;4.25;;;2.63;;
55469;SDS011;41334;47.872;16.384;2022-08-01T05:01:42;5.68;;;2.38;;
55469;SDS011;41334;47.872;16.384;2022-08-01T05:04:44;4.63;;;2.30;;
55469;SDS011;41334;47.872;16.384;2022-08-01T05:07:47;3.40;;;2.28;;
55469;SDS011;41334;47.872;16.384;2022-08-01T05:10:49;3.20;;;2.00;;
55469;SDS011;41334;47.872;16.384;2022-08-01T05:13:50;3.38;;;2.45;;
55469;SDS011;41334;47.872;16.384;2022-08-01T05:16:52;4.32;;;2.70;;
55469;SDS011;41334;47.872;16.384;2022-08-01T05:19:54;3.35;;;2.60;;
55469;SDS011;41334;47.872;16.384;2022-08-01T05:22:56;5.30;;;2.30;;
55469;SDS011;41334;47.872;16.384;2022-08-01T05:25:58;3.35;;;2.30;;
55469;SDS011;41334;47.872;16.384;2022-08-01T05:29:00;4.30;;;2.25;;
55469;SDS011;41334;47.872;16.384;2022-08-01T05:32:02;4.72;;;2.42;;
55469;SDS011;41334;47.872;16.384;2022-08-01T05:35:05;3.55;;;2.20;;
55469;SDS011;41334;47.872;16.384;2022-08-01T05:38:08;3.53;;;2.28;;
55469;SDS011;41334;47.872;16.384;2022-08-01T05:41:15;4.75;;;2.00;;
55469;SDS011;41334;47.872;16.384;2022-08-01T05:44:17;6.15;;;2.00;;
55469;SDS011;41334;47.872;16.384;2022-08-01T05:47:19;3.05;;;2.17;;
55469;SDS011;41334;47.872;16.384;2022-08-01T05:50:20;5.88;;;2.17;;
55469;SDS011;41334;47.872;16.384;2022-08-01T05:53:22;5.50;;;1.70;;
55469;SDS011;41334;47.872;16.384;2022-08-01T05:56:24;5.60;;;1.90;;
55469;SDS011;41334;47.872;16.384;2022-08-01T05:59:32;2.97;;;1.67;;
55469;SDS011;41334;47.872;16.384;2022-08-01T06:02:34;4.78;;;1.90;;
55469;SDS011;41334;47.872;16.384;2022-08-01T06:05:41;5.60;;;2.30;;
55469;SDS011;41334;47.872;16.384;2022-08-01T06:08:43;7.50;;;1.98;;
55469;SDS011;41334;47.872;16.384;2022-08-01T06:11:45;6.78;;;2.63;;
55469;SDS011;41334;47.872;16.384;2022-08-01T06:14:46;5.50;;;3.00;;
55469;SDS011;41334;47.872;16.384;2022-08-01T06:17:48;4.50;;;2.00;;
55469;SDS011;41334;47.872;16.384;2022-08-01T06:20:50;11.80;;;2.40;;
55469;SDS011;41334;47.872;16.384;2022-08-01T06:23:52;6.38;;;1.90;;
55469;SDS011;41334;47.872;16.384;2022-08-01T06:26:53;2.80;;;1.88;;
55469;SDS011;41334;47.872;16.384;2022-08-01T06:29:55;4.18;;;1.90;;
55469;SDS011;41334;47.872;16.384;2022-08-01T06:32:58;2.83;;;1.80;;
55469;SDS011;41334;47.872;16.384;2022-08-01T06:36:01;2.83;;;1.88;;
55469;SDS011;41334;47.872;16.384;2022-08-01T06:39:03;4.43;;;1.73;;
55469;SDS011;41334;47.872;16.384;2022-08-01T06:42:04;4.55;;;1.95;;
55469;SDS011;41334;47.872;16.384;2022-08-01T06:45:10;3.47;;;1.80;;
55469;SDS011;41334;47.872;16.384;2022-08-01T06:48:13;2.55;;;1.80;;
55469;SDS011;41334;47.872;16.384;2022-08-01T06:51:15;3.45;;;1.80;;
55469;SDS011;41334;47.872;16.384;2022-08-01T06:54:19;4.63;;;1.58;;
55469;SDS011;41334;47.872;16.384;2022-08-01T06:57:21;4.53;;;1.80;;
55469;SDS011;41334;47.872;16.384;2022-08-01T07:00:23;2.88;;;1.73;;
55469;SDS011;41334;47.872;16.384;2022-08-01T07:03:27;5.65;;;1.70;;
55469;SDS011;41334;47.872;16.384;2022-08-01T07:06:48;7.65;;;1.95;;
55469;SDS011;41334;47.872;16.384;2022-08-01T07:09:50;2.70;;;1.75;;
55469;SDS011;41334;47.872;16.384;2022-08-01T07:12:53;7.38;;;2.28;;
55469;SDS011;41334;47.872;16.384;2022-08-01T07:15:55;3.75;;;2.13;;
55469;SDS011;41334;47.872;16.384;2022-08-01T07:18:57;4.93;;;1.90;;
55469;SDS011;41334;47.872;16.384;2022-08-01T07:21:58;3.60;;;2.10;;
55469;SDS011;41334;47.872;16.384;2022-08-01T07:25:00;2.55;;;1.80;;
55469;SDS011;41334;47.872;16.384;2022-08-01T07:28:02;4.60;;;1.95;;
55469;SDS011;41334;47.872;16.384;2022-08-01T07:31:04;3.20;;;2.13;;
55469;SDS011;41334;47.872;16.384;2022-08-01T07:34:06;3.90;;;2.00;;
55469;SDS011;41334;47.872;16.384;2022-08-01T07:37:08;3.65;;;2.03;;
55469;SDS011;41334;47.872;16.384;2022-08-01T07:40:10;3.03;;;2.03;;
55469;SDS011;41334;47.872;16.384;2022-08-01T07:43:12;4.40;;;2.10;;
55469;SDS011;41334;47.872;16.384;2022-08-01T07:46:16;3.50;;;2.22;;
55469;SDS011;41334;47.872;16.384;2022-08-01T07:49:18;3.58;;;2.08;;
55469;SDS011;41334;47.872;16.384;2022-08-01T07:52:20;2.53;;;1.88;;
55469;SDS011;41334;47.872;16.384;2022-08-01T07:55:22;3.53;;;1.90;;
55469;SDS011;41334;47.872;16.384;2022-08-01T07:58:23;3.00;;;2.10;;
55469;SDS011;41334;47.872;16.384;2022-08-01T08:01:25;3.40;;;1.80;;
55469;SDS011;41334;47.872;16.384;2022-08-01T08:04:28;6.28;;;1.80;;
55469;SDS011;41334;47.872;16.384;2022-08-01T08:07:29;3.03;;;2.00;;
55469;SDS011;41334;47.872;16.384;2022-08-01T08:10:32;4.07;;;1.42;;
55469;SDS011;41334;47.872;16.384;2022-08-01T08:13:34;2.20;;;1.38;;
55469;SDS011;41334;47.872;16.384;2022-08-01T08:16:36;7.32;;;1.50;;
55469;SDS011;41334;47.872;16.384;2022-08-01T08:19:37;1.80;;;1.40;;
55469;SDS011;41334;47.872;16.384;2022-08-01T08:22:40;2.35;;;1.33;;
55469;SDS011;41334;47.872;16.384;2022-08-01T08:25:42;1.38;;;0.93;;
55469;SDS011;41334;47.872;16.384;2022-08-01T08:28:43;3.80;;;1.70;;
55469;SDS011;41334;47.872;16.384;2022-08-01T08:31:45;2.70;;;1.30;;
55469;SDS011;41334;47.872;16.384;2022-08-01T08:34:53;3.15;;;1.40;;
55469;SDS011;41334;47.872;16.384;2022-08-01T08:37:55;3.58;;;1.15;;
55469;SDS011;41334;47.872;16.384;2022-08-01T08:40:59;4.88;;;1.20;;
55469;SDS011;41334;47.872;16.384;2022-08-01T08:44:02;3.80;;;1.50;;
55469;SDS011;41334;47.872;16.384;2022-08-01T08:47:05;2.28;;;1.35;;
55469;SDS011;41334;47.872;16.384;2022-08-01T08:50:09;4.47;;;1.80;;
55469;SDS011;41334;47.872;16.384;2022-08-01T08:53:11;2.88;;;1.48;;
55469;SDS011;41334;47.872;16.384;2022-08-01T08:56:19;5.80;;;1.63;;
55469;SDS011;41334;47.872;16.384;2022-08-01T08:59:22;1.88;;;1.23;;
55469;SDS011;41334;47.872;16.384;2022-08-01T09:02:27;2.07;;;1.50;;
55469;SDS011;41334;47.872;16.384;2022-08-01T09:05:28;2.83;;;1.40;;
55469;SDS011;41334;47.872;16.384;2022-08-01T09:08:39;3.53;;;1.77;;
55469;SDS011;41334;47.872;16.384;2022-08-01T09:11:41;2.50;;;1.65;;
55469;SDS011;41334;47.872;16.384;2022-08-01T09:14:57;2.42;;;1.50;;
55469;SDS011;41334;47.872;16.384;2022-08-01T09:17:59;1.88;;;1.33;;
55469;SDS011;41334;47.872;16.384;2022-08-01T09:24:19;1.70;;;1.33;;
55469;SDS011;41334;47.872;16.384;2022-08-01T09:27:31;3.00;;;1.60;;
55469;SDS011;41334;47.872;16.384;2022-08-01T09:30:36;1.92;;;1.40;;
55469;SDS011;41334;47.872;16.384;2022-08-01T09:36:55;4.18;;;1.33;;
55469;SDS011;41334;47.872;16.384;2022-08-01T09:40:01;13.20;;;3.67;;
55469;SDS011;41334;47.872;16.384;2022-08-01T09:43:12;4.80;;;1.40;;
55469;SDS011;41334;47.872;16.384;2022-08-01T09:46:16;2.67;;;1.70;;
55469;SDS011;41334;47.872;16.384;2022-08-01T09:52:53;2.55;;;1.73;;
55469;SDS011;41334;47.872;16.384;2022-08-01T09:56:08;1.63;;;1.20;;
55469;SDS011;41334;47.872;16.384;2022-08-01T09:59:13;1.20;;;0.80;;
55469;SDS011;41334;47.872;16.384;2022-08-01T10:08:47;2.03;;;1.50;;
55469;SDS011;41334;47.872;16.384;2022-08-01T10:11:49;3.03;;;1.63;;
55469;SDS011;41334;47.872;16.384;2022-08-01T10:14:52;1.80;;;1.20;;
55469;SDS011;41334;47.872;16.384;2022-08-01T10:17:57;3.30;;;1.53;;
55469;SDS011;41334;47.872;16.384;2022-08-01T10:21:02;2.95;;;1.77;;
55469;SDS011;41334;47.872;16.384;2022-08-01T10:24:09;3.25;;;1.55;;
55469;SDS011;41334;47.872;16.384;2022-08-01T10:27:14;2.13;;;1.50;;
55469;SDS011;41334;47.872;16.384;2022-08-01T10:30:25;3.72;;;1.60;;
55469;SDS011;41334;47.872;16.384;2022-08-01T10:33:31;3.53;;;1.50;;
55469;SDS011;41334;47.872;16.384;2022-08-01T10:36:53;3.95;;;1.30;;
55469;SDS011;41334;47.872;16.384;2022-08-01T10:39:56;1.38;;;0.88;;
55469;SDS011;41334;47.872;16.384;2022-08-01T10:43:18;2.85;;;1.58;;
55469;SDS011;41334;47.872;16.384;2022-08-01T10:46:22;2.95;;;1.50;;
55469;SDS011;41334;47.872;16.384;2022-08-01T10:49:26;2.30;;;1.77;;
55469;SDS011;41334;47.872;16.384;2022-08-01T10:52:32;1.85;;;1.35;;
55469;SDS011;41334;47.872;16.384;2022-08-01T10:55:56;4.20;;;1.50;;
55469;SDS011;41334;47.872;16.384;2022-08-01T10:59:04;1.83;;;1.45;;
55469;SDS011;41334;47.872;16.384;2022-08-01T11:02:12;2.10;;;1.60;;
55469;SDS011;41334;47.872;16.384;2022-08-01T11:05:33;2.35;;;1.77;;
55469;SDS011;41334;47.872;16.384;2022-08-01T11:08:36;3.20;;;1.90;;
55469;SDS011;41334;47.872;16.384;2022-08-01T11:12:00;2.58;;;1.90;;
55469;SDS011;41334;47.872;16.384;2022-08-01T11:15:21;4.20;;;1.92;;
55469;SDS011;41334;47.872;16.384;2022-08-01T11:18:31;4.15;;;1.60;;
55469;SDS011;41334;47.872;16.384;2022-08-01T11:25:02;3.15;;;1.60;;
55469;SDS011;41334;47.872;16.384;2022-08-01T11:34:17;2.55;;;1.20;;
55469;SDS011;41334;47.872;16.384;2022-08-01T11:37:26;2.20;;;1.50;;
55469;SDS011;41334;47.872;16.384;2022-08-01T11:40:31;4.15;;;1.55;;
55469;SDS011;41334;47.872;16.384;2022-08-01T11:43:33;3.45;;;1.60;;
55469;SDS011;41334;47.872;16.384;2022-08-01T11:53:43;2.90;;;1.90;;
55469;SDS011;41334;47.872;16.384;2022-08-01T11:56:47;3.03;;;1.52;;
55469;SDS011;41334;47.872;16.384;2022-08-01T11:59:50;2.45;;;1.52;;
55469;SDS011;41334;47.872;16.384;2022-08-01T12:03:13;3.15;;;1.42;;
55469;SDS011;41334;47.872;16.384;2022-08-01T12:06:34;2.30;;;1.40;;
55469;SDS011;41334;47.872;16.384;2022-08-01T12:09:36;3.47;;;1.55;;
55469;SDS011;41334;47.872;16.384;2022-08-01T12:12:44;2.10;;;1.13;;
55469;SDS011;41334;47.872;16.384;2022-08-01T12:15:58;4.70;;;1.70;;
55469;SDS011;41334;47.872;16.384;2022-08-01T12:19:08;4.57;;;1.80;;
55469;SDS011;41334;47.872;16.384;2022-08-01T12:22:13;4.65;;;1.70;;
55469;SDS011;41334;47.872;16.384;2022-08-01T12:25:16;2.05;;;1.55;;
55469;SDS011;41334;47.872;16.384;2022-08-01T12:28:19;2.53;;;1.60;;
55469;SDS011;41334;47.872;16.384;2022-08-01T12:31:30;1.52;;;1.10;;
55469;SDS011;41334;47.872;16.384;2022-08-01T12:34:32;2.13;;;1.55;;
55469;SDS011;41334;47.872;16.384;2022-08-01T12:37:41;3.20;;;1.40;;
55469;SDS011;41334;47.872;16.384;2022-08-01T12:40:47;3.88;;;1.40;;
55469;SDS011;41334;47.872;16.384;2022-08-01T12:43:55;3.85;;;1.58;;
55469;SDS011;41334;47.872;16.384;2022-08-01T12:46:56;2.05;;;0.93;;
55469;SDS011;41334;47.872;16.384;2022-08-01T12:49:59;3.17;;;1.30;;
55469;SDS011;41334;47.872;16.384;2022-08-01T12:53:01;2.10;;;1.20;;
55469;SDS011;41334;47.872;16.384;2022-08-01T12:56:03;1.77;;;1.10;;
55469;SDS011;41334;47.872;16.384;2022-08-01T13:02:31;1.83;;;1.30;;
55469;SDS011;41334;47.872;16.384;2022-08-01T13:08:43;1.35;;;1.02;;
55469;SDS011;41334;47.872;16.384;2022-08-01T13:11:46;2.13;;;1.05;;
55469;SDS011;41334;47.872;16.384;2022-08-01T13:18:33;1.98;;;1.08;;
55469;SDS011;41334;47.872;16.384;2022-08-01T13:21:36;2.17;;;1.30;;
55469;SDS011;41334;47.872;16.384;2022-08-01T13:25:08;3.38;;;1.55;;
55469;SDS011;41334;47.872;16.384;2022-08-01T13:28:15;2.30;;;1.27;;
55469;SDS011;41334;47.872;16.384;2022-08-01T13:31:21;2.80;;;1.30;;
55469;SDS011;41334;47.872;16.384;2022-08-01T13:34:34;2.88;;;1.27;;
55469;SDS011;41334;47.872;16.384;2022-08-01T13:37:36;1.73;;;1.13;;
55469;SDS011;41334;47.872;16.384;2022-08-01T13:40:39;1.83;;;1.13;;
55469;SDS011;41334;47.872;16.384;2022-08-01T13:43:41;1.70;;;0.82;;
55469;SDS011;41334;47.872;16.384;2022-08-01T13:47:00;1.35;;;0.90;;
55469;SDS011;41334;47.872;16.384;2022-08-01T13:50:16;4.18;;;1.10;;
55469;SDS011;41334;47.872;16.384;2022-08-01T13:53:18;1.60;;;1.10;;
55469;SDS011;41334;47.872;16.384;2022-08-01T13:56:19;1.33;;;0.70;;
55469;SDS011;41334;47.872;16.384;2022-08-01T13:59:21;4.60;;;1.08;;
55469;SDS011;41334;47.872;16.384;2022-08-01T14:02:23;1.52;;;0.82;;
55469;SDS011;41334;47.872;16.384;2022-08-01T14:05:25;1.50;;;0.75;;
55469;SDS011;41334;47.872;16.384;2022-08-01T14:08:26;2.20;;;0.80;;
55469;SDS011;41334;47.872;16.384;2022-08-01T14:11:28;1.38;;;0.68;;
55469;SDS011;41334;47.872;16.384;2022-08-01T14:14:37;1.70;;;1.02;;
55469;SDS011;41334;47.872;16.384;2022-08-01T14:17:39;3.90;;;1.20;;
55469;SDS011;41334;47.872;16.384;2022-08-01T14:20:48;1.33;;;0.75;;
55469;SDS011;41334;47.872;16.384;2022-08-01T14:23:54;1.33;;;0.80;;
55469;SDS011;41334;47.872;16.384;2022-08-01T14:26:55;1.60;;;0.93;;
55469;SDS011;41334;47.872;16.384;2022-08-01T14:29:57;1.27;;;0.75;;
55469;SDS011;41334;47.872;16.384;2022-08-01T14:33:04;1.25;;;0.70;;
55469;SDS011;41334;47.872;16.384;2022-08-01T14:36:06;2.47;;;0.85;;
55469;SDS011;41334;47.872;16.384;2022-08-01T14:39:27;1.38;;;0.90;;
55469;SDS011;41334;47.872;16.384;2022-08-01T14:42:30;1.60;;;0.85;;
55469;SDS011;41334;47.872;16.384;2022-08-01T14:45:32;3.40;;;1.00;;
55469;SDS011;41334;47.872;16.384;2022-08-01T14:48:34;3.97;;;1.02;;
55469;SDS011;41334;47.872;16.384;2022-08-01T14:51:35;3.65;;;0.88;;
55469;SDS011;41334;47.872;16.384;2022-08-01T14:54:39;1.63;;;1.00;;
55469;SDS011;41334;47.872;16.384;2022-08-01T14:57:41;1.58;;;0.80;;
55469;SDS011;41334;47.872;16.384;2022-08-01T15:00:42;1.30;;;0.75;;
55469;SDS011;41334;47.872;16.384;2022-08-01T15:03:44;2.50;;;1.00;;
55469;SDS011;41334;47.872;16.384;2022-08-01T15:06:47;1.77;;;1.00;;
55469;SDS011;41334;47.872;16.384;2022-08-01T15:09:49;1.50;;;1.00;;
55469;SDS011;41334;47.872;16.384;2022-08-01T15:12:51;1.70;;;1.00;;
55469;SDS011;41334;47.872;16.384;2022-08-01T15:15:53;1.60;;;0.95;;
55469;SDS011;41334;47.872;16.384;2022-08-01T15:19:00;2.58;;;0.98;;
55469;SDS011;41334;47.872;16.384;2022-08-01T15:22:02;2.30;;;1.10;;
55469;SDS011;41334;47.872;16.384;2022-08-01T15:25:05;3.15;;;1.20;;
55469;SDS011;41334;47.872;16.384;2022-08-01T15:28:08;2.50;;;1.30;;
55469;SDS011;41334;47.872;16.384;2022-08-01T15:31:10;1.63;;;1.05;;
55469;SDS011;41334;47.872;16.384;2022-08-01T15:34:14;1.17;;;0.82;;
55469;SDS011;41334;47.872;16.384;2022-08-01T15:37:16;2.47;;;1.00;;
55469;SDS011;41334;47.872;16.384;2022-08-01T15:40:19;1.50;;;1.00;;
55469;SDS011;41334;47.872;16.384;2022-08-01T15:43:20;3.35;;;1.20;;
55469;SDS011;41334;47.872;16.384;2022-08-01T15:46:22;1.55;;;1.00;;
55469;SDS011;41334;47.872;16.384;2022-08-01T15:49:25;1.83;;;1.08;;
55469;SDS011;41334;47.872;16.384;2022-08-01T15:52:27;2.92;;;0.98;;
55469;SDS011;41334;47.872;16.384;2022-08-01T15:55:34;3.78;;;0.93;;
55469;SDS011;41334;47.872;16.384;2022-08-01T15:58:38;1.70;;;1.05;;
55469;SDS011;41334;47.872;16.384;2022-08-01T16:01:40;2.78;;;1.10;;
55469;SDS011;41334;47.872;16.384;2022-08-01T16:04:42;3.15;;;1.25;;
55469;SDS011;41334;47.872;16.384;2022-08-01T16:07:44;2.50;;;1.35;;
55469;SDS011;41334;47.872;16.384;2022-08-01T16:11:11;2.10;;;0.98;;
55469;SDS011;41334;47.872;16.384;2022-08-01T16:14:13;2.40;;;1.60;;
55469;SDS011;41334;47.872;16.384;2022-08-01T16:17:16;2.08;;;1.40;;
55469;SDS011;41334;47.872;16.384;2022-08-01T16:20:17;1.88;;;1.20;;
55469;SDS011;41334;47.872;16.384;2022-08-01T16:23:19;2.15;;;0.90;;
55469;SDS011;41334;47.872;16.384;2022-08-01T16:26:21;1.10;;;0.80;;
55469;SDS011;41334;47.872;16.384;2022-08-01T16:29:28;1.73;;;1.17;;
55469;SDS011;41334;47.872;16.384;2022-08-01T16:32:32;3.42;;;1.38;;
55469;SDS011;41334;47.872;16.384;2022-08-01T16:35:41;2.40;;;1.25;;
55469;SDS011;41334;47.872;16.384;2022-08-01T16:38:47;1.52;;;0.93;;
55469;SDS011;41334;47.872;16.384;2022-08-01T16:41:49;3.97;;;1.02;;
55469;SDS011;41334;47.872;16.384;2022-08-01T16:44:55;2.28;;;1.45;;
55469;SDS011;41334;47.872;16.384;2022-08-01T16:48:04;4.22;;;2.08;;
55469;SDS011;41334;47.872;16.384;2022-08-01T16:51:06;1.88;;;1.25;;
55469;SDS011;41334;47.872;16.384;2022-08-01T16:54:08;4.43;;;2.00;;
55469;SDS011;41334;47.872;16.384;2022-08-01T16:57:26;1.90;;;1.30;;
55469;SDS011;41334;47.872;16.384;2022-08-01T17:00:28;4.03;;;1.38;;
55469;SDS011;41334;47.872;16.384;2022-08-01T17:03:30;2.00;;;1.38;;
55469;SDS011;41334;47.872;16.384;2022-08-01T17:06:52;1.52;;;1.08;;
55469;SDS011;41334;47.872;16.384;2022-08-01T17:09:54;1.70;;;1.30;;
55469;SDS011;41334;47.872;16.384;2022-08-01T17:12:55;3.63;;;1.65;;
55469;SDS011;41334;47.872;16.384;2022-08-01T17:15:57;2.70;;;1.30;;
55469;SDS011;41334;47.872;16.384;2022-08-01T17:18:59;2.60;;;1.40;;
55469;SDS011;41334;47.872;16.384;2022-08-01T17:22:02;4.65;;;1.13;;
55469;SDS011;41334;47.872;16.384;2022-08-01T17:25:04;4.00;;;1.05;;
55469;SDS011;41334;47.872;16.384;2022-08-01T17:28:06;2.10;;;1.35;;
55469;SDS011;41334;47.872;16.384;2022-08-01T17:31:08;4.40;;;1.30;;
55469;SDS011;41334;47.872;16.384;2022-08-01T17:34:11;3.17;;;1.10;;
55469;SDS011;41334;47.872;16.384;2022-08-01T17:37:12;2.25;;;1.10;;
55469;SDS011;41334;47.872;16.384;2022-08-01T17:40:14;2.67;;;1.38;;
55469;SDS011;41334;47.872;16.384;2022-08-01T17:43:36;3.58;;;0.90;;
55469;SDS011;41334;47.872;16.384;2022-08-01T17:46:38;2.85;;;1.10;;
55469;SDS011;41334;47.872;16.384;2022-08-01T17:49:40;2.08;;;1.30;;
55469;SDS011;41334;47.872;16.384;2022-08-01T17:52:57;3.38;;;1.30;;
55469;SDS011;41334;47.872;16.384;2022-08-01T17:55:59;1.33;;;0.85;;
55469;SDS011;41334;47.872;16.384;2022-08-01T17:59:03;2.58;;;0.80;;
55469;SDS011;41334;47.872;16.384;2022-08-01T18:02:05;1.73;;;1.05;;
55469;SDS011;41334;47.872;16.384;2022-08-01T18:05:07;2.45;;;1.10;;
55469;SDS011;41334;47.872;16.384;2022-08-01T18:08:11;2.08;;;1.00;;
55469;SDS011;41334;47.872;16.384;2022-08-01T18:11:15;1.75;;;1.10;;
55469;SDS011;41334;47.872;16.384;2022-08-01T18:14:17;1.40;;;0.77;;
55469;SDS011;41334;47.872;16.384;2022-08-01T18:17:18;1.45;;;1.00;;
55469;SDS011;41334;47.872;16.384;2022-08-01T18:20:20;2.40;;;1.30;;
55469;SDS011;41334;47.872;16.384;2022-08-01T18:23:22;6.55;;;1.02;;
55469;SDS011;41334;47.872;16.384;2022-08-01T18:26:24;1.40;;;0.85;;
55469;SDS011;41334;47.872;16.384;2022-08-01T18:29:27;4.70;;;0.90;;
55469;SDS011;41334;47.872;16.384;2022-08-01T18:32:48;1.77;;;1.00;;
55469;SDS011;41334;47.872;16.384;2022-08-01T18:35:50;3.53;;;0.95;;
55469;SDS011;41334;47.872;16.384;2022-08-01T18:38:54;2.08;;;1.30;;
55469;SDS011;41334;47.872;16.384;2022-08-01T18:41:56;3.60;;;1.10;;
55469;SDS011;41334;47.872;16.384;2022-08-01T18:45:00;3.75;;;0.90;;
55469;SDS011;41334;47.872;16.384;2022-08-01T18:48:02;1.23;;;0.80;;
55469;SDS011;41334;47.872;16.384;2022-08-01T18:51:04;2.95;;;1.17;;
55469;SDS011;41334;47.872;16.384;2022-08-01T18:54:14;1.95;;;1.00;;
55469;SDS011;41334;47.872;16.384;2022-08-01T18:57:16;2.10;;;1.02;;
55469;SDS011;41334;47.872;16.384;2022-08-01T19:00:21;2.35;;;1.15;;
55469;SDS011;41334;47.872;16.384;2022-08-01T19:03:23;4.28;;;1.17;;
55469;SDS011;41334;47.872;16.384;2022-08-01T19:06:25;1.23;;;0.88;;
55469;SDS011;41334;47.872;16.384;2022-08-01T19:09:28;1.58;;;0.95;;
55469;SDS011;41334;47.872;16.384;2022-08-01T19:12:30;2.25;;;1.20;;
55469;SDS011;41334;47.872;16.384;2022-08-01T19:15:32;2.00;;;1.10;;